Time;durP1;ratioP1;P1;durP2;ratioP2;P2;SDS_P1;SDS_P2;PMS_P1;PMS_P2;Temp;Humidity;BMP_temperature;BMP_pressure;BME280_temperature;BME280_humidity;BME280_pressure;Samples;Min_cycle;Max_cycle;Signal;HPM_P1;HPM_P2
2023/10/16 00:01:18;;;;;;;2.55;1.30;;;;;;;6.61;100.00;99000.22;4485124;31;20140;-79
2023/10/16 00:03:48;;;;;;;3.70;1.42;;;;;;;6.59;100.00;99001.28;4485212;31;20136;-80
2023/10/16 00:06:16;;;;;;;3.90;1.40;;;;;;;6.56;100.00;99002.31;4485074;31;20088;-79
2023/10/16 00:08:47;;;;;;;2.08;1.35;;;;;;;6.57;100.00;99001.34;4485264;31;20110;-79
2023/10/16 00:11:17;;;;;;;3.05;1.23;;;;;;;6.52;100.00;99004.28;4485092;31;20696;-79
2023/10/16 00:13:49;;;;;;;2.87;1.52;;;;;;;6.48;100.00;99000.22;4485308;31;20518;-79
2023/10/16 00:16:20;;;;;;;2.28;1.10;;;;;;;6.54;100.00;99001.56;4478316;31;20105;-80
2023/10/16 00:18:50;;;;;;;1.33;1.00;;;;;;;6.44;100.00;98993.56;4469234;32;20600;-79
2023/10/16 00:21:19;;;;;;;5.32;1.70;;;;;;;6.56;100.00;98999.72;4469381;32;20104;-79
2023/10/16 00:23:47;;;;;;;3.45;1.45;;;;;;;6.43;100.00;98997.09;4469084;32;20488;-80
2023/10/16 00:26:21;;;;;;;2.15;0.90;;;;;;;6.43;100.00;98991.91;4469268;32;20157;-79
2023/10/16 00:31:42;;;;;;;3.10;1.20;;;;;;;6.44;100.00;99003.97;4469359;32;20092;-80
2023/10/16 00:34:11;;;;;;;5.95;1.20;;;;;;;6.43;100.00;99001.47;4469358;32;20088;-79
2023/10/16 00:36:38;;;;;;;1.98;1.20;;;;;;;6.42;100.00;99020.63;4469385;32;20093;-80
2023/10/16 00:39:13;;;;;;;1.95;1.10;;;;;;;6.51;100.00;98996.56;4469402;32;20092;-80
2023/10/16 00:41:46;;;;;;;2.10;1.25;;;;;;;6.44;100.00;98993.56;4469201;32;20479;-80
2023/10/16 00:44:16;;;;;;;2.92;0.90;;;;;;;6.43;100.00;98989.28;4469480;32;20088;-80
2023/10/16 00:46:48;;;;;;;2.05;1.30;;;;;;;6.56;100.00;98995.31;4469457;32;20080;-80
2023/10/16 00:49:18;;;;;;;5.25;1.42;;;;;;;6.46;100.00;98989.06;4469327;32;20160;-80
2023/10/16 00:51:49;;;;;;;3.08;1.30;;;;;;;6.44;100.00;98990.16;4469031;32;20532;-79
2023/10/16 00:54:30;;;;;;;1.73;1.10;;;;;;;6.42;100.00;98985.03;4477015;32;20561;-79
2023/10/16 00:56:59;;;;;;;1.40;0.95;;;;;;;6.39;100.00;98982.66;4483670;32;20100;-80
2023/10/16 00:59:28;;;;;;;1.92;1.10;;;;;;;6.38;100.00;98988.78;4484613;31;20088;-79
2023/10/16 01:02:13;;;;;;;3.95;1.25;;;;;;;6.34;100.00;98993.38;4484119;31;20092;-80
2023/10/16 01:04:41;;;;;;;1.50;1.30;;;;;;;6.35;100.00;98989.81;4484592;31;20122;-78
2023/10/16 01:07:09;;;;;;;3.90;1.37;;;;;;;6.42;100.00;98987.66;4484535;31;20159;-77
2023/10/16 01:09:39;;;;;;;1.25;0.95;;;;;;;6.38;100.00;98996.59;4484730;31;20461;-77
2023/10/16 01:12:07;;;;;;;4.75;1.27;;;;;;;6.31;100.00;99005.75;4484579;31;20123;-77
2023/10/16 01:14:37;;;;;;;3.35;1.60;;;;;;;6.39;100.00;99008.69;4485110;31;20092;-78
2023/10/16 01:17:09;;;;;;;2.03;1.20;;;;;;;6.27;100.00;99018.13;4472375;32;20187;-78
2023/10/16 01:19:37;;;;;;;1.40;0.90;;;;;;;6.26;100.00;99023.44;4468960;32;20068;-78
2023/10/16 01:22:05;;;;;;;3.17;1.05;;;;;;;6.21;100.00;99018.56;4469057;32;20412;-78
2023/10/16 01:24:32;;;;;;;1.87;0.90;;;;;;;6.12;100.00;99027.81;4469045;32;20161;-78
2023/10/16 01:27:14;;;;;;;2.85;1.10;;;;;;;6.20;100.00;99015.09;4468902;32;20085;-77
2023/10/16 01:29:42;;;;;;;3.12;1.02;;;;;;;6.16;100.00;99015.41;4468864;32;20103;-77
2023/10/16 01:32:09;;;;;;;4.32;1.10;;;;;;;6.03;100.00;99018.00;4468806;32;20093;-78
2023/10/16 01:34:39;;;;;;;1.65;1.15;;;;;;;6.06;100.00;99030.81;4468710;32;20423;-78
2023/10/16 01:37:09;;;;;;;6.15;1.15;;;;;;;5.98;100.00;99033.94;4468802;32;20168;-77
2023/10/16 01:39:49;;;;;;;2.60;1.12;;;;;;;6.00;100.00;99026.03;4468857;32;20105;-77
2023/10/16 01:42:18;;;;;;;1.58;1.40;;;;;;;5.98;100.00;99027.88;4467748;32;20092;-77
2023/10/16 01:44:51;;;;;;;2.60;1.10;;;;;;;5.88;100.00;99022.44;4468785;32;20150;-77
2023/10/16 01:47:19;;;;;;;2.72;0.77;;;;;;;5.87;100.00;99036.34;4469003;32;20088;-78
2023/10/16 01:49:50;;;;;;;6.53;1.27;;;;;;;5.94;100.00;99031.59;4468859;32;20123;-77
2023/10/16 01:52:17;;;;;;;3.08;1.02;;;;;;;5.97;100.00;99032.25;4468873;32;20533;-78
2023/10/16 01:54:46;;;;;;;3.85;1.52;;;;;;;5.95;100.00;99044.50;4480856;32;20749;-77
2023/10/16 01:57:14;;;;;;;2.30;1.30;;;;;;;5.90;100.00;99032.72;4484210;32;20462;-77
2023/10/16 01:59:44;;;;;;;2.53;1.10;;;;;;;5.83;100.00;99038.31;4484139;31;20081;-77
2023/10/16 02:02:12;;;;;;;3.35;1.20;;;;;;;5.89;100.00;99042.31;4484250;31;20485;-80
2023/10/16 02:04:42;;;;;;;1.98;1.05;;;;;;;5.85;100.00;99041.66;4484018;31;20084;-80
2023/10/16 02:07:11;;;;;;;3.60;1.10;;;;;;;5.93;100.00;99053.31;4484019;31;20081;-79
2023/10/16 02:09:40;;;;;;;0.98;0.82;;;;;;;5.77;100.00;99051.72;4483999;31;20192;-79
2023/10/16 02:12:16;;;;;;;2.05;0.98;;;;;;;5.83;100.00;99053.09;4483892;31;20118;-79
2023/10/16 02:14:44;;;;;;;1.83;1.10;;;;;;;5.71;100.00;99057.34;4485001;31;20080;-80
2023/10/16 02:17:19;;;;;;;1.83;1.10;;;;;;;5.74;100.00;99046.72;4472629;31;20131;-79
2023/10/16 02:19:48;;;;;;;4.07;1.90;;;;;;;5.65;100.00;99060.31;4470168;32;20576;-80
2023/10/16 02:22:16;;;;;;;2.85;1.02;;;;;;;5.64;100.00;99069.03;4470101;32;20501;-80
2023/10/16 02:24:48;;;;;;;3.10;1.45;;;;;;;5.65;100.00;99073.31;4470112;32;20138;-80
2023/10/16 02:27:18;;;;;;;3.10;1.10;;;;;;;5.60;100.00;99068.41;4470016;32;20089;-80
2023/10/16 02:29:49;;;;;;;1.90;1.10;;;;;;;5.74;100.00;99085.72;4470256;32;20142;-80
2023/10/16 02:32:18;;;;;;;2.55;1.25;;;;;;;5.66;100.00;99085.38;4470050;32;20088;-80
2023/10/16 02:34:45;;;;;;;3.47;1.60;;;;;;;5.65;100.00;99086.31;4469921;32;20101;-80
2023/10/16 02:37:16;;;;;;;2.53;1.30;;;;;;;5.60;100.00;99090.97;4470053;32;20455;-80
2023/10/16 02:39:50;;;;;;;2.85;1.33;;;;;;;5.61;100.00;99097.84;4469868;32;20085;-80
2023/10/16 02:42:19;;;;;;;1.85;1.15;;;;;;;5.56;100.00;99082.53;4470020;32;20101;-80
2023/10/16 02:44:49;;;;;;;2.03;1.20;;;;;;;5.63;100.00;99085.56;4470000;32;20123;-80
2023/10/16 02:47:25;;;;;;;1.52;1.15;;;;;;;5.63;100.00;99080.38;4469917;32;20508;-79
2023/10/16 02:49:56;;;;;;;2.03;1.10;;;;;;;5.58;100.00;99080.66;4470011;32;20164;-79
2023/10/16 02:52:24;;;;;;;3.15;1.40;;;;;;;5.63;100.00;99080.38;4470013;32;20081;-79
2023/10/16 02:54:56;;;;;;;2.03;1.40;;;;;;;5.66;100.00;99073.22;4483114;32;20590;-80
2023/10/16 02:57:27;;;;;;;3.53;1.77;;;;;;;5.69;100.00;99077.38;4485587;32;20107;-79
2023/10/16 02:59:56;;;;;;;1.90;1.42;;;;;;;5.56;100.00;99084.31;4485701;31;20088;-80
2023/10/16 03:02:27;;;;;;;2.30;1.48;;;;;;;5.54;100.00;99079.22;4485495;32;20426;-80
2023/10/16 03:05:10;;;;;;;3.05;1.60;;;;;;;5.50;100.00;99077.72;4485980;32;20110;-77
2023/10/16 03:07:44;;;;;;;1.73;1.10;;;;;;;5.45;100.00;99079.75;4485428;32;20089;-78
2023/10/16 03:10:12;;;;;;;3.15;1.20;;;;;;;5.38;100.00;99088.91;4485425;32;20085;-77
2023/10/16 03:12:42;;;;;;;4.03;1.50;;;;;;;5.31;100.00;99091.88;4485601;31;20104;-77
2023/10/16 03:15:30;;;;;;;7.20;1.92;;;;;;;5.31;100.00;99086.69;4485480;32;20149;-77
2023/10/16 03:17:57;;;;;;;1.83;1.12;;;;;;;5.27;100.00;99105.16;4469914;32;20187;-77
2023/10/16 03:20:28;;;;;;;3.78;1.33;;;;;;;5.22;100.00;99108.00;4469654;32;20097;-77
2023/10/16 03:22:59;;;;;;;2.97;1.40;;;;;;;5.28;100.00;99106.81;4469844;32;20422;-77
2023/10/16 03:28:11;;;;;;;1.87;1.00;;;;;;;5.32;100.00;99110.88;4469747;32;20106;-78
2023/10/16 03:30:39;;;;;;;2.55;1.33;;;;;;;5.33;100.00;99100.41;4469651;32;20100;-78
2023/10/16 03:33:08;;;;;;;5.28;1.65;;;;;;;5.31;100.00;99111.81;4469578;32;20092;-77
2023/10/16 03:35:38;;;;;;;2.25;1.37;;;;;;;5.27;100.00;99110.34;4469447;32;20088;-77
2023/10/16 03:38:10;;;;;;;1.55;1.15;;;;;;;5.24;100.00;99100.13;4469743;32;20089;-78
2023/10/16 03:40:41;;;;;;;2.55;1.52;;;;;;;5.23;100.00;99095.88;4469637;32;20138;-78
2023/10/16 03:43:09;;;;;;;2.22;1.37;;;;;;;5.17;100.00;99112.66;4469542;32;20115;-78
2023/10/16 03:45:40;;;;;;;4.78;1.30;;;;;;;5.22;100.00;99120.19;4469421;32;20125;-78
2023/10/16 03:48:10;;;;;;;3.60;1.50;;;;;;;5.31;100.00;99135.19;4469477;32;20080;-77
2023/10/16 03:50:39;;;;;;;2.62;1.40;;;;;;;5.13;100.00;99134.56;4469574;32;20099;-77
2023/10/16 03:53:07;;;;;;;2.67;1.37;;;;;;;5.11;100.00;99139.84;4469881;32;20532;-78
2023/10/16 03:55:43;;;;;;;2.72;1.35;;;;;;;5.21;100.00;99137.53;4485175;31;20119;-78
2023/10/16 03:58:14;;;;;;;7.45;1.52;;;;;;;5.24;100.00;99132.16;4485193;31;20200;-77
2023/10/16 04:00:52;;;;;;;2.40;1.37;;;;;;;5.38;100.00;99131.28;4485089;31;20530;-78
2023/10/16 04:03:21;;;;;;;2.42;1.12;;;;;;;5.41;100.00;99128.50;4479624;31;20213;-76
2023/10/16 04:05:50;;;;;;;3.85;1.35;;;;;;;5.38;100.00;99128.69;4484370;31;20104;-78
2023/10/16 04:08:21;;;;;;;7.12;1.60;;;;;;;5.43;100.00;99125.81;4483214;31;20113;-78
2023/10/16 04:10:53;;;;;;;2.92;1.80;;;;;;;5.32;100.00;99129.91;4476983;32;20115;-78
2023/10/16 04:13:26;;;;;;;1.87;1.35;;;;;;;5.22;100.00;99131.38;4483876;31;20119;-78
2023/10/16 04:16:08;;;;;;;7.22;1.92;;;;;;;5.11;100.00;99126.03;4481386;31;20537;-78
2023/10/16 04:18:39;;;;;;;2.80;1.70;;;;;;;5.17;100.00;99125.66;4480502;31;20503;-78
2023/10/16 04:26:47;;;;;;;3.00;1.33;;;;;;;5.08;100.00;99129.63;4484738;32;20186;-78
2023/10/16 04:29:33;;;;;;;2.75;1.25;;;;;;;4.96;100.00;99118.22;4480490;31;20100;-78
2023/10/16 04:34:34;;;;;;;3.67;1.10;;;;;;;5.09;100.00;99110.53;4482076;31;20156;-78
2023/10/16 04:53:13;;;;;;;6.05;1.60;;;;;;;4.79;100.00;99124.44;4448763;32;20094;-78
2023/10/16 04:55:53;;;;;;;2.10;1.60;;;;;;;4.68;100.00;99128.59;4450665;32;20693;-78
2023/10/16 06:15:07;;;;;;;2.30;1.50;;;;;;;6.28;100.00;99206.28;4425115;32;21941;-78
2023/10/16 06:17:37;;;;;;;3.47;1.67;;;;;;;6.33;100.00;99215.47;4430241;32;20558;-79
2023/10/16 06:20:09;;;;;;;2.37;1.25;;;;;;;6.36;100.00;99220.47;4428045;32;22288;-78
2023/10/16 06:22:36;;;;;;;3.35;1.65;;;;;;;6.42;100.00;99219.25;4429746;32;20117;-77
2023/10/16 06:25:09;;;;;;;5.75;1.83;;;;;;;6.50;100.00;99218.75;4429016;32;20579;-78
2023/10/16 06:27:41;;;;;;;3.78;1.30;;;;;;;6.55;100.00;99227.91;4426704;32;20113;-76
2023/10/16 06:30:10;;;;;;;4.95;2.20;;;;;;;6.52;100.00;99228.12;4429700;32;20109;-76
2023/10/16 06:32:52;;;;;;;5.57;1.95;;;;;;;6.61;100.00;99233.66;4430777;32;20475;-77
2023/10/16 06:35:19;;;;;;;8.75;2.53;;;;;;;6.56;100.00;99231.37;4431068;32;20101;-76
2023/10/16 06:37:52;;;;;;;6.03;3.10;;;;;;;6.44;100.00;99229.56;4431042;32;20101;-79
2023/10/16 06:40:26;;;;;;;10.18;2.33;;;;;;;6.49;100.00;99230.91;4435906;32;20104;-77
2023/10/16 06:43:15;;;;;;;6.40;1.92;;;;;;;6.62;100.00;99227.53;4473504;32;20465;-78
2023/10/16 06:45:57;;;;;;;2.90;1.77;;;;;;;6.70;100.00;99228.69;4472898;32;20108;-76
2023/10/16 06:48:28;;;;;;;2.08;1.30;;;;;;;6.77;100.00;99223.06;4471334;32;20093;-78
2023/10/16 06:51:04;;;;;;;3.33;1.60;;;;;;;6.78;100.00;99240.38;4470670;32;20103;-78
2023/10/16 06:53:33;;;;;;;3.58;1.67;;;;;;;6.76;100.00;99232.66;4469192;32;20120;-78
2023/10/16 06:56:02;;;;;;;6.60;1.52;;;;;;;6.80;100.00;99231.53;4467358;32;20096;-75
2023/10/16 06:58:34;;;;;;;3.75;1.70;;;;;;;6.91;100.00;99230.81;4469660;32;20104;-77
2023/10/16 07:01:03;;;;;;;2.97;1.27;;;;;;;6.97;100.00;99235.59;4467340;32;20153;-79
2023/10/16 07:03:33;;;;;;;2.15;1.30;;;;;;;7.06;100.00;99232.38;4470036;32;20568;-83
2023/10/16 07:06:05;;;;;;;6.70;1.75;;;;;;;7.05;100.00;99240.31;4474595;32;20084;-78
2023/10/16 07:08:33;;;;;;;2.20;1.17;;;;;;;7.10;100.00;99251.22;4474396;32;20161;-78
2023/10/16 07:11:03;;;;;;;2.25;1.08;;;;;;;7.23;100.00;99253.87;4471525;32;20118;-78
2023/10/16 07:13:31;;;;;;;2.37;1.20;;;;;;;7.22;100.00;99258.25;4473229;32;20140;-78
2023/10/16 07:16:04;;;;;;;3.30;1.73;;;;;;;7.21;100.00;99264.38;4471146;32;20096;-77
2023/10/16 07:18:33;;;;;;;2.78;1.33;;;;;;;7.37;100.00;99272.00;4474780;32;20116;-80
2023/10/16 07:23:34;;;;;;;2.85;1.52;;;;;;;7.85;100.00;99279.16;4472786;32;20105;-77
2023/10/16 07:26:06;;;;;;;1.80;1.37;;;;;;;7.94;100.00;99270.69;4475271;31;20465;-82
2023/10/16 07:28:34;;;;;;;2.42;1.50;;;;;;;8.03;100.00;99274.41;4470914;32;20466;-76
2023/10/16 07:31:05;;;;;;;2.37;1.50;;;;;;;8.08;100.00;99274.91;4476927;32;20163;-78
2023/10/16 07:33:33;;;;;;;5.53;1.50;;;;;;;8.39;100.00;99277.13;4474598;31;20494;-80
2023/10/16 07:36:00;;;;;;;3.58;1.55;;;;;;;8.40;99.43;99279.63;4469656;32;20151;-76
2023/10/16 07:38:28;;;;;;;3.20;1.60;;;;;;;8.62;99.62;99288.56;4469290;32;20148;-79
2023/10/16 07:40:57;;;;;;;6.93;1.62;;;;;;;8.74;99.55;99290.25;4473827;32;20134;-75
2023/10/16 07:43:32;;;;;;;4.72;2.35;;;;;;;8.91;99.35;99294.25;4468757;32;20113;-79
2023/10/16 07:48:46;;;;;;;4.10;2.20;;;;;;;8.91;96.80;99296.03;4476610;32;20137;-77
2023/10/16 07:51:16;;;;;;;3.65;2.00;;;;;;;9.07;97.09;99301.78;4467888;32;20442;-76
2023/10/16 07:53:44;;;;;;;4.62;1.92;;;;;;;9.04;95.44;99297.63;4469182;32;20100;-76
2023/10/16 07:56:32;;;;;;;4.95;2.08;;;;;;;8.90;96.69;99297.78;4472929;32;20205;-78
2023/10/16 07:59:08;;;;;;;2.92;2.08;;;;;;;9.10;95.77;99296.34;4471742;32;20136;-83
2023/10/16 08:01:43;;;;;;;2.25;1.77;;;;;;;9.50;93.42;99310.78;4472043;31;20112;-81
2023/10/16 08:06:57;;;;;;;4.85;1.70;;;;;;;9.63;92.27;99308.06;4470470;31;20218;-75
2023/10/16 08:12:12;;;;;;;3.65;1.80;;;;;;;9.71;91.06;99293.44;4470361;31;20141;-79
2023/10/16 08:14:41;;;;;;;3.55;1.35;;;;;;;9.57;90.38;99291.91;4469971;32;20757;-77
2023/10/16 08:17:14;;;;;;;2.92;1.85;;;;;;;9.48;90.43;99287.38;4467526;32;20092;-77
2023/10/16 08:19:44;;;;;;;3.05;1.05;;;;;;;9.39;89.82;99286.28;4472863;32;20116;-76
2023/10/16 08:22:15;;;;;;;4.03;1.30;;;;;;;9.52;89.09;99287.97;4472183;31;20846;-76
2023/10/16 08:24:58;;;;;;;1.75;1.25;;;;;;;9.67;87.91;99291.19;4472854;32;20133;-74
2023/10/16 08:33:08;;;;;;;3.20;1.40;;;;;;;9.69;86.59;99300.59;4469649;32;20533;-76
2023/10/16 08:35:39;;;;;;;8.68;1.30;;;;;;;9.66;86.46;99306.06;4471745;32;20156;-75
2023/10/16 08:38:25;;;;;;;4.10;1.45;;;;;;;9.47;86.94;99313.63;4474804;31;20971;-76
2023/10/16 08:41:07;;;;;;;2.75;1.30;;;;;;;9.55;87.40;99306.03;4469176;32;20093;-76
2023/10/16 08:43:52;;;;;;;5.28;1.20;;;;;;;9.99;86.32;99309.59;4471563;32;20461;-76
2023/10/16 08:46:34;;;;;;;1.20;0.73;;;;;;;10.14;83.72;99318.03;4471487;32;20109;-76
2023/10/16 08:49:08;;;;;;;1.15;0.75;;;;;;;10.19;78.89;99317.69;4469846;31;20104;-76
2023/10/16 08:51:36;;;;;;;1.52;0.90;;;;;;;10.20;78.82;99320.19;4468151;32;20100;-76
2023/10/16 08:54:05;;;;;;;1.48;0.82;;;;;;;10.14;77.72;99315.44;4472563;32;20124;-76
2023/10/16 08:56:34;;;;;;;2.35;0.95;;;;;;;9.97;76.25;99308.09;4470117;31;20204;-75
2023/10/16 08:59:04;;;;;;;3.58;0.88;;;;;;;10.04;76.07;99302.25;4469180;32;20111;-76
2023/10/16 09:01:32;;;;;;;3.65;1.08;;;;;;;10.27;76.33;99300.41;4469474;32;20089;-76
2023/10/16 09:04:05;;;;;;;3.30;1.17;;;;;;;10.31;76.49;99290.56;4469982;32;20133;-76
2023/10/16 09:06:37;;;;;;;1.52;0.90;;;;;;;10.31;74.79;99287.94;4471327;32;20135;-75
2023/10/16 09:09:16;;;;;;;5.20;0.90;;;;;;;10.46;71.68;99294.59;4469514;32;20119;-73
2023/10/16 09:11:44;;;;;;;2.42;1.08;;;;;;;10.54;71.69;99306.25;4467537;32;20127;-75
2023/10/16 09:14:13;;;;;;;2.28;0.95;;;;;;;10.60;72.97;99301.31;4468820;32;20123;-75
2023/10/16 09:16:44;;;;;;;4.03;0.75;;;;;;;10.65;70.98;99303.56;4470861;32;20101;-73
2023/10/16 09:19:14;;;;;;;2.67;1.15;;;;;;;10.68;71.79;99300.69;4468217;32;20959;-75
2023/10/16 09:21:44;;;;;;;1.73;0.90;;;;;;;10.39;72.55;99303.88;4474002;32;20172;-75
2023/10/16 09:24:12;;;;;;;2.72;0.73;;;;;;;10.40;73.11;99295.06;4472061;32;20374;-75
2023/10/16 09:26:45;;;;;;;3.47;0.93;;;;;;;10.44;72.34;99303.50;4467910;32;20517;-75
2023/10/16 09:29:22;;;;;;;1.87;0.73;;;;;;;10.56;71.40;99309.56;4472577;32;20162;-76
2023/10/16 09:31:51;;;;;;;0.98;0.70;;;;;;;10.71;71.28;99313.56;4469971;32;20143;-75
2023/10/16 09:34:21;;;;;;;1.37;0.80;;;;;;;10.82;70.40;99315.28;4470812;31;20092;-75
2023/10/16 09:37:06;;;;;;;1.60;0.75;;;;;;;10.79;70.64;99310.31;4472552;32;20126;-75
2023/10/16 09:39:37;;;;;;;7.70;1.00;;;;;;;10.77;70.77;99296.50;4472009;32;20127;-75
2023/10/16 09:42:11;;;;;;;1.92;0.77;;;;;;;10.72;71.77;99293.41;4471256;32;20606;-74
2023/10/16 09:44:40;;;;;;;10.23;1.87;;;;;;;10.82;70.52;99284.69;4471092;31;20096;-73
2023/10/16 09:47:26;;;;;;;2.22;1.20;;;;;;;10.86;70.87;99289.69;4472511;32;20100;-73
2023/10/16 09:49:59;;;;;;;9.32;1.30;;;;;;;10.79;69.58;99290.16;4471877;32;20154;-74
2023/10/16 09:52:33;;;;;;;1.80;0.82;;;;;;;10.83;69.75;99283.72;4467948;32;20522;-73
2023/10/16 09:55:05;;;;;;;4.37;1.20;;;;;;;10.80;70.26;99278.72;4472682;32;20114;-72
2023/10/16 09:57:34;;;;;;;3.37;0.90;;;;;;;10.98;70.81;99278.19;4479467;31;20100;-73
2023/10/16 10:02:51;;;;;;;3.60;0.80;;;;;;;11.15;71.08;99295.94;4481679;32;20161;-76
2023/10/16 10:05:31;;;;;;;3.90;1.25;;;;;;;11.21;70.71;99278.88;4477216;32;20106;-75
2023/10/16 10:08:03;;;;;;;2.42;1.10;;;;;;;11.19;70.63;99292.13;4477802;32;20115;-75
2023/10/16 10:13:15;;;;;;;1.98;1.08;;;;;;;11.31;68.60;99292.87;4482329;31;20161;-76
2023/10/16 10:15:45;;;;;;;2.45;1.02;;;;;;;11.39;69.94;99286.19;4479037;32;20100;-75
2023/10/16 10:18:32;;;;;;;5.55;1.35;;;;;;;11.11;67.42;99288.47;4481665;32;20092;-76
2023/10/16 10:21:02;;;;;;;1.95;0.70;;;;;;;11.27;69.35;99285.41;4478239;31;20169;-76
2023/10/16 10:23:32;;;;;;;3.80;1.00;;;;;;;11.43;69.81;99271.81;4483518;31;20104;-75
2023/10/16 10:26:07;;;;;;;2.17;1.00;;;;;;;11.56;69.73;99276.87;4493757;31;20571;-75
2023/10/16 10:28:38;;;;;;;2.12;1.00;;;;;;;11.20;69.36;99261.47;4480146;32;20131;-77
2023/10/16 10:31:05;;;;;;;1.65;0.90;;;;;;;11.13;69.45;99255.09;4477548;32;20112;-74
2023/10/16 10:33:38;;;;;;;2.92;1.30;;;;;;;11.32;68.82;99270.09;4477407;32;20109;-75
2023/10/16 10:36:28;;;;;;;2.53;1.17;;;;;;;11.25;66.89;99263.72;4483964;31;20149;-77
2023/10/16 10:42:08;;;;;;;2.28;1.20;;;;;;;11.39;67.86;99255.50;4482880;32;20088;-75
2023/10/16 10:44:37;;;;;;;5.07;1.35;;;;;;;11.31;67.77;99252.69;4485531;31;20153;-73
2023/10/16 10:47:31;;;;;;;1.30;1.20;;;;;;;11.32;66.25;99246.50;4484558;31;20370;-74
2023/10/16 10:50:13;;;;;;;1.75;0.95;;;;;;;11.63;67.21;99233.41;4482140;32;20123;-74
2023/10/16 10:52:43;;;;;;;1.77;0.82;;;;;;;11.83;65.21;99231.66;4475751;32;20835;-75
2023/10/16 10:55:25;;;;;;;1.45;1.00;;;;;;;11.72;64.42;99229.97;4480601;32;20097;-74
2023/10/16 10:58:11;;;;;;;4.07;1.20;;;;;;;11.72;64.13;99224.72;4482464;32;20120;-75
2023/10/16 11:00:49;;;;;;;4.72;1.62;;;;;;;11.87;63.44;99209.44;4477740;32;20116;-75
2023/10/16 11:03:30;;;;;;;2.50;1.00;;;;;;;11.92;64.19;99211.66;4480454;31;20622;-75
2023/10/16 11:05:58;;;;;;;3.42;1.00;;;;;;;11.78;63.68;99211.06;4480248;31;20093;-73
2023/10/16 11:08:29;;;;;;;2.20;1.37;;;;;;;11.87;62.71;99207.63;4481401;32;20093;-76
2023/10/16 11:10:56;;;;;;;1.55;0.82;;;;;;;12.02;63.14;99208.13;4478445;32;20116;-75
2023/10/16 11:13:26;;;;;;;3.95;0.93;;;;;;;12.01;62.13;99208.25;4478727;31;20104;-76
2023/10/16 11:15:58;;;;;;;1.40;0.82;;;;;;;12.05;62.05;99212.25;4476146;32;20549;-73
2023/10/16 11:18:29;;;;;;;1.00;0.90;;;;;;;12.05;61.68;99210.47;4477778;32;20092;-75
2023/10/16 11:21:04;;;;;;;2.03;0.80;;;;;;;12.10;62.00;99202.19;4471513;31;20124;-76
2023/10/16 11:23:31;;;;;;;1.83;1.00;;;;;;;12.40;62.87;99195.16;4471142;31;20813;-74
2023/10/16 11:25:59;;;;;;;2.92;1.02;;;;;;;12.34;61.58;99203.56;4475333;32;20089;-75
2023/10/16 11:28:28;;;;;;;2.40;1.00;;;;;;;12.23;60.73;99207.16;4473553;31;20570;-76
2023/10/16 11:30:56;;;;;;;2.05;1.00;;;;;;;12.37;61.03;99209.41;4476621;32;20153;-78
2023/10/16 11:33:34;;;;;;;1.98;0.75;;;;;;;12.30;59.89;99208.28;4474773;32;20100;-77
2023/10/16 11:36:06;;;;;;;1.92;1.08;;;;;;;12.49;61.21;99209.25;4471728;32;20184;-76
2023/10/16 11:38:34;;;;;;;2.40;1.10;;;;;;;12.70;60.91;99207.31;4477202;31;20139;-76
2023/10/16 11:41:12;;;;;;;1.62;1.12;;;;;;;12.65;59.20;99208.69;4479925;31;20880;-75
2023/10/16 11:43:47;;;;;;;4.18;1.10;;;;;;;12.58;59.64;99203.16;4473192;32;20123;-75
2023/10/16 11:46:31;;;;;;;10.95;1.02;;;;;;;12.48;60.79;99195.28;4474435;32;20126;-77
2023/10/16 11:49:17;;;;;;;3.20;0.80;;;;;;;12.49;58.74;99201.34;4479071;32;20119;-77
2023/10/16 11:51:51;;;;;;;2.67;1.42;;;;;;;12.74;58.72;99200.78;4473105;31;20112;-74
2023/10/16 11:54:23;;;;;;;2.08;0.70;;;;;;;12.68;58.81;99196.09;4471173;32;20096;-75
2023/10/16 11:56:53;;;;;;;2.72;0.82;;;;;;;12.75;58.87;99193.75;4473962;31;20080;-76
2023/10/16 11:59:28;;;;;;;3.30;0.73;;;;;;;12.92;58.54;99193.00;4475949;32;20093;-75
2023/10/16 12:01:59;;;;;;;1.83;0.93;;;;;;;13.07;58.01;99196.03;4473088;32;20548;-76
2023/10/16 12:04:32;;;;;;;2.10;0.70;;;;;;;13.08;57.02;99192.44;4471639;31;20135;-76
2023/10/16 12:07:01;;;;;;;1.75;0.82;;;;;;;13.08;56.90;99196.84;4472349;31;20587;-75
2023/10/16 12:09:36;;;;;;;2.62;0.73;;;;;;;12.91;57.43;99195.78;4478045;31;20096;-75
2023/10/16 12:12:07;;;;;;;1.48;0.73;;;;;;;12.90;57.69;99194.97;4475046;32;20137;-76
2023/10/16 12:14:38;;;;;;;3.80;0.80;;;;;;;12.95;58.06;99200.63;4474448;32;20100;-75
2023/10/16 12:17:11;;;;;;;1.67;0.93;;;;;;;13.10;57.26;99194.94;4475071;31;20096;-75
2023/10/16 12:19:40;;;;;;;3.85;0.70;;;;;;;13.24;57.14;99178.66;4475106;31;20084;-76
2023/10/16 12:22:08;;;;;;;3.72;0.80;;;;;;;13.06;54.82;99189.09;4476205;31;20117;-77
2023/10/16 12:24:36;;;;;;;3.00;0.82;;;;;;;13.34;56.48;99177.81;4473325;32;20108;-75
2023/10/16 12:27:04;;;;;;;2.20;0.75;;;;;;;13.22;54.09;99180.63;4476087;31;20183;-75
2023/10/16 12:29:31;;;;;;;1.52;0.60;;;;;;;13.41;54.50;99182.34;4482536;31;20077;-75
2023/10/16 12:32:03;;;;;;;1.92;0.57;;;;;;;13.27;54.57;99188.91;4477377;32;20096;-75
2023/10/16 12:34:32;;;;;;;0.90;0.55;;;;;;;13.24;54.19;99181.28;4482933;32;20484;-75
2023/10/16 12:37:00;;;;;;;2.67;0.98;;;;;;;13.28;55.45;99176.59;4479145;32;20096;-75
2023/10/16 12:39:30;;;;;;;3.35;0.70;;;;;;;13.40;55.43;99191.25;4477123;31;20602;-76
2023/10/16 12:42:01;;;;;;;2.70;0.88;;;;;;;13.53;54.46;99182.19;4488331;31;20100;-75
2023/10/16 12:44:29;;;;;;;3.67;1.00;;;;;;;13.54;53.26;99175.97;4482356;31;20149;-75
2023/10/16 12:46:57;;;;;;;0.88;0.57;;;;;;;13.68;53.54;99167.56;4472207;32;20164;-76
2023/10/16 12:49:25;;;;;;;0.95;0.43;;;;;;;13.89;52.67;99169.09;4476912;31;20072;-77
2023/10/16 12:51:53;;;;;;;3.12;0.85;;;;;;;13.52;52.73;99175.25;4486899;31;20108;-77
2023/10/16 12:54:24;;;;;;;3.35;0.90;;;;;;;13.44;52.44;99183.88;4483699;31;20444;-76
2023/10/16 12:56:53;;;;;;;0.93;0.57;;;;;;;13.55;51.63;99181.06;4484641;31;20108;-76
2023/10/16 12:59:22;;;;;;;2.17;0.68;;;;;;;13.44;52.14;99183.88;4486275;31;20108;-76
2023/10/16 13:01:50;;;;;;;1.42;0.70;;;;;;;13.65;51.30;99181.00;4483661;31;20100;-76
2023/10/16 13:04:19;;;;;;;1.12;0.50;;;;;;;13.45;50.26;99180.28;4475440;31;20393;-75
2023/10/16 13:06:47;;;;;;;4.57;0.85;;;;;;;13.50;49.39;99183.28;4479695;32;20127;-76
2023/10/16 13:09:18;;;;;;;3.30;1.10;;;;;;;13.56;50.51;99177.44;4478413;32;20184;-75
2023/10/16 13:11:46;;;;;;;1.55;0.70;;;;;;;13.75;52.35;99171.25;4478674;31;20100;-78
2023/10/16 13:14:13;;;;;;;4.22;0.73;;;;;;;13.66;50.45;99165.06;4480531;31;20115;-77
2023/10/16 13:16:42;;;;;;;1.98;0.77;;;;;;;13.56;50.61;99163.47;4481734;31;20115;-75
2023/10/16 13:19:12;;;;;;;6.10;2.33;;;;;;;13.63;50.04;99173.25;4480372;32;20076;-75
2023/10/16 13:21:43;;;;;;;3.58;0.93;;;;;;;13.49;50.38;99179.03;4476950;32;20097;-74
2023/10/16 13:24:13;;;;;;;3.53;0.60;;;;;;;13.31;50.79;99173.66;4476395;32;20538;-75
2023/10/16 13:26:41;;;;;;;0.65;0.40;;;;;;;13.37;50.35;99174.91;4479663;32;20093;-75
2023/10/16 13:29:09;;;;;;;1.50;0.57;;;;;;;13.43;50.41;99172.53;4478124;31;20104;-75
2023/10/16 13:31:45;;;;;;;1.05;0.80;;;;;;;13.30;51.76;99167.56;4474478;32;20104;-75
2023/10/16 13:34:15;;;;;;;2.25;0.50;;;;;;;13.40;51.50;99170.19;4478257;32;80318;-74
2023/10/16 13:37:00;;;;;;;3.47;0.85;;;;;;;13.66;51.31;99165.06;4475301;32;20176;-74
2023/10/16 13:39:32;;;;;;;2.58;1.33;;;;;;;13.63;51.33;99165.38;4483490;32;20127;-79
2023/10/16 13:42:00;;;;;;;1.05;0.47;;;;;;;13.61;51.19;99167.31;4484238;31;20443;-81
2023/10/16 13:44:32;;;;;;;1.15;0.55;;;;;;;13.63;50.49;99165.38;4483133;31;20122;-81
2023/10/16 13:47:06;;;;;;;;;;;;;;;13.56;49.58;99172.19;4481024;32;20168;-76
2023/10/16 13:49:41;;;;;;;0.40;0.40;;;;;;;13.37;51.35;99167.84;4482558;32;20366;-80
2023/10/16 13:52:08;;;;;;;0.30;0.30;;;;;;;13.25;49.68;99167.19;4482829;31;20123;-80
2023/10/16 13:54:38;;;;;;;1.92;0.60;;;;;;;13.49;51.66;99163.22;4479495;31;21249;-81
2023/10/16 13:57:07;;;;;;;1.80;0.45;;;;;;;13.47;50.78;99157.28;4481902;31;20148;-81
2023/10/16 13:59:36;;;;;;;1.92;0.52;;;;;;;13.39;50.36;99154.56;4480533;31;20515;-81
2023/10/16 14:02:05;;;;;;;2.22;0.70;;;;;;;13.58;50.41;99149.19;4479553;32;20104;-80
2023/10/16 14:04:33;;;;;;;1.67;0.57;;;;;;;13.46;51.68;99153.00;4479444;32;20187;-79
2023/10/16 14:07:00;;;;;;;1.95;0.75;;;;;;;13.45;51.88;99156.59;4482520;31;20101;-78